Time;durP1;ratioP1;P1;durP2;ratioP2;P2;SDS_P1;SDS_P2;PMS_P1;PMS_P2;Temp;Humidity;BMP_temperature;BMP_pressure;BME280_temperature;BME280_humidity;BME280_pressure;Samples;Min_cycle;Max_cycle;Signal;HPM_P1;HPM_P2
2022/07/16 00:01:28;;;;;;;4.72;2.50;;;28.50;59.60;;;;;;4983103;28;20043;-75
2022/07/16 00:03:58;;;;;;;3.53;2.05;;;28.30;60.50;;;;;;4962484;28;20035;-76
2022/07/16 00:06:26;;;;;;;1.67;1.42;;;28.40;60.20;;;;;;4972444;28;20625;-75
2022/07/16 00:08:52;;;;;;;5.18;2.22;;;28.30;60.40;;;;;;4991428;28;20038;-75
2022/07/16 00:11:19;;;;;;;5.18;2.00;;;28.30;61.30;;;;;;4987276;28;20030;-76
2022/07/16 00:13:46;;;;;;;3.13;1.77;;;28.10;61.50;;;;;;4983150;28;20031;-75
2022/07/16 00:16:12;;;;;;;4.45;1.95;;;28.00;61.80;;;;;;4988894;28;20030;-75
2022/07/16 00:21:24;;;;;;;3.03;2.42;;;27.90;61.80;;;;;;4977095;28;20182;-74
2022/07/16 00:23:50;;;;;;;3.35;1.88;;;27.90;61.50;;;;;;4981622;28;20027;-75
2022/07/16 00:26:16;;;;;;;5.70;2.00;;;28.00;61.20;;;;;;4981486;28;20033;-76
2022/07/16 00:28:41;;;;;;;4.55;1.95;;;28.00;61.00;;;;;;4982857;28;20027;-75
2022/07/16 00:31:07;;;;;;;3.60;2.30;;;28.00;61.50;;;;;;4984224;28;20073;-75
2022/07/16 00:33:33;;;;;;;3.33;1.85;;;27.90;61.00;;;;;;4976006;28;20029;-75
2022/07/16 00:35:59;;;;;;;4.40;2.33;;;27.80;61.40;;;;;;4986905;28;20492;-75
2022/07/16 00:38:24;;;;;;;2.90;2.00;;;27.50;62.10;;;;;;4979008;28;20466;-76
2022/07/16 00:40:50;;;;;;;2.75;1.85;;;27.60;61.80;;;;;;4986146;28;20418;-75
2022/07/16 00:43:16;;;;;;;3.10;1.63;;;27.60;62.00;;;;;;4985606;28;20100;-77
2022/07/16 00:45:42;;;;;;;4.20;2.35;;;27.70;62.60;;;;;;4975843;28;20479;-76
2022/07/16 00:48:09;;;;;;;2.88;1.80;;;27.70;62.40;;;;;;4975033;28;20403;-76
2022/07/16 00:50:36;;;;;;;8.35;2.10;;;27.70;62.80;;;;;;4979679;28;20035;-76
2022/07/16 00:53:04;;;;;;;2.50;1.75;;;27.50;63.30;;;;;;4988180;28;20538;-77
2022/07/16 00:55:30;;;;;;;3.05;1.30;;;27.50;62.80;;;;;;4975498;28;20026;-77
2022/07/16 00:57:57;;;;;;;3.40;2.17;;;27.50;63.10;;;;;;4979565;28;20033;-77
2022/07/16 01:00:24;;;;;;;3.58;2.38;;;27.50;63.40;;;;;;4959018;28;20628;-76
2022/07/16 01:02:50;;;;;;;4.35;2.03;;;27.50;63.60;;;;;;4980373;28;20434;-76
2022/07/16 01:05:17;;;;;;;4.72;1.73;;;27.60;63.50;;;;;;4963159;28;20031;-76
2022/07/16 01:07:44;;;;;;;4.30;2.00;;;27.70;63.20;;;;;;4980648;28;20030;-76
2022/07/16 01:10:10;;;;;;;2.83;1.90;;;27.60;63.70;;;;;;4981406;28;20374;-77
2022/07/16 01:12:36;;;;;;;7.13;2.05;;;27.70;63.60;;;;;;4987546;28;20066;-77
2022/07/16 01:15:03;;;;;;;3.70;2.20;;;27.70;64.00;;;;;;4982019;28;20045;-77
2022/07/16 01:17:29;;;;;;;3.13;2.00;;;27.70;63.70;;;;;;4981385;28;20015;-76
2022/07/16 01:19:54;;;;;;;6.65;2.17;;;27.70;63.50;;;;;;4984695;28;20030;-76
2022/07/16 01:22:22;;;;;;;2.53;1.77;;;27.70;63.50;;;;;;4980305;28;20041;-77
2022/07/16 01:24:49;;;;;;;4.35;1.92;;;27.70;64.00;;;;;;4983489;28;20375;-76
2022/07/16 01:27:16;;;;;;;2.65;2.00;;;27.70;63.40;;;;;;4989114;28;20498;-76
2022/07/16 01:29:42;;;;;;;3.80;1.80;;;27.60;63.80;;;;;;4979523;28;20066;-76
2022/07/16 01:32:08;;;;;;;4.43;2.05;;;27.60;63.60;;;;;;4963937;28;20096;-76
2022/07/16 01:34:33;;;;;;;3.45;2.00;;;27.50;64.30;;;;;;4983449;28;20023;-76
2022/07/16 01:37:04;;;;;;;4.32;2.28;;;27.30;64.60;;;;;;4981766;28;20483;-76
2022/07/16 01:39:33;;;;;;;4.80;2.08;;;27.40;64.70;;;;;;4987217;28;20055;-76
2022/07/16 01:42:00;;;;;;;3.28;2.03;;;27.30;65.30;;;;;;4979642;28;20038;-76
2022/07/16 01:44:27;;;;;;;5.93;2.47;;;27.30;64.70;;;;;;4990519;28;20058;-76
2022/07/16 01:46:55;;;;;;;5.50;2.60;;;27.40;64.70;;;;;;4983928;28;20030;-76
2022/07/16 01:49:21;;;;;;;5.40;2.85;;;27.20;65.40;;;;;;4976460;28;20085;-76
2022/07/16 01:51:48;;;;;;;1.95;1.77;;;27.20;65.60;;;;;;4988513;28;20072;-76
2022/07/16 01:54:13;;;;;;;3.88;2.35;;;27.00;65.70;;;;;;4977914;28;20058;-75
2022/07/16 01:56:40;;;;;;;4.25;1.98;;;27.10;66.00;;;;;;4982620;28;20053;-77
2022/07/16 01:59:06;;;;;;;3.95;1.92;;;27.20;65.70;;;;;;4970769;28;20061;-76
2022/07/16 02:01:32;;;;;;;4.10;2.30;;;27.20;65.80;;;;;;4988971;28;20041;-76
2022/07/16 02:03:58;;;;;;;5.10;2.78;;;27.20;66.00;;;;;;4979932;28;20034;-76
2022/07/16 02:06:24;;;;;;;3.67;2.38;;;27.00;67.20;;;;;;4991791;28;20121;-76
2022/07/16 02:08:49;;;;;;;5.45;2.80;;;27.10;66.30;;;;;;4973184;28;20121;-76
2022/07/16 02:11:15;;;;;;;4.75;2.55;;;27.00;65.80;;;;;;4981703;28;20465;-76
2022/07/16 02:13:42;;;;;;;8.77;2.80;;;27.00;65.40;;;;;;4978415;28;20027;-76
2022/07/16 02:16:08;;;;;;;3.65;1.70;;;26.90;65.20;;;;;;4977411;28;20019;-76
2022/07/16 02:18:34;;;;;;;2.72;2.10;;;26.90;65.00;;;;;;4979733;28;20035;-75
2022/07/16 02:21:00;;;;;;;2.53;1.95;;;27.00;64.80;;;;;;4990566;28;20030;-75
2022/07/16 02:23:26;;;;;;;2.65;1.83;;;27.00;64.80;;;;;;4987833;28;20046;-76
2022/07/16 02:25:52;;;;;;;4.38;2.80;;;26.90;64.80;;;;;;4983805;28;20109;-76
2022/07/16 02:28:17;;;;;;;5.03;3.55;;;26.90;65.30;;;;;;4979872;28;20030;-76
2022/07/16 02:30:46;;;;;;;4.00;2.20;;;26.90;66.30;;;;;;4986276;28;20022;-76
2022/07/16 02:33:15;;;;;;;4.00;2.70;;;26.90;66.00;;;;;;4984266;28;20039;-76
2022/07/16 02:35:41;;;;;;;3.65;2.85;;;26.90;65.70;;;;;;4976708;28;20031;-75
2022/07/16 02:38:08;;;;;;;4.38;2.88;;;26.90;65.60;;;;;;4984031;28;20027;-75
2022/07/16 02:40:35;;;;;;;3.22;2.40;;;26.90;65.80;;;;;;4981410;28;20034;-76
2022/07/16 02:43:02;;;;;;;2.97;2.42;;;27.00;65.40;;;;;;4988413;28;20087;-75
2022/07/16 02:45:28;;;;;;;5.32;2.45;;;27.00;65.10;;;;;;4986047;28;20042;-76
2022/07/16 02:47:54;;;;;;;2.85;2.13;;;27.00;65.40;;;;;;4993441;28;20521;-76
2022/07/16 02:50:20;;;;;;;8.55;3.13;;;26.90;65.30;;;;;;4983093;28;20041;-75
2022/07/16 02:52:46;;;;;;;6.50;1.95;;;26.80;65.90;;;;;;4986038;28;20034;-76
2022/07/16 02:55:11;;;;;;;2.92;1.70;;;26.90;65.40;;;;;;4965627;28;20119;-76
2022/07/16 02:57:37;;;;;;;3.20;2.42;;;26.90;65.30;;;;;;4984543;28;20150;-75
2022/07/16 03:00:06;;;;;;;2.88;2.08;;;26.90;65.00;;;;;;4978063;28;20479;-75
2022/07/16 03:02:32;;;;;;;2.38;1.77;;;26.90;65.00;;;;;;4976705;28;20027;-75
2022/07/16 03:04:58;;;;;;;2.58;2.10;;;26.90;65.00;;;;;;4986653;28;20030;-75
2022/07/16 03:07:23;;;;;;;4.22;1.60;;;26.80;65.40;;;;;;4976248;28;20038;-75
2022/07/16 03:09:49;;;;;;;7.50;2.10;;;26.80;65.30;;;;;;4967562;28;20053;-75
2022/07/16 03:12:15;;;;;;;2.03;1.60;;;26.80;65.30;;;;;;4978000;28;20035;-75
2022/07/16 03:14:40;;;;;;;4.20;1.90;;;26.90;65.30;;;;;;4988540;28;20109;-76
2022/07/16 03:17:06;;;;;;;2.88;2.17;;;26.90;65.10;;;;;;4989094;28;20037;-75
2022/07/16 03:19:32;;;;;;;2.40;1.80;;;26.90;65.00;;;;;;4991755;28;20038;-76
2022/07/16 03:21:58;;;;;;;2.72;2.15;;;26.90;65.00;;;;;;4977080;28;20058;-76
2022/07/16 03:24:23;;;;;;;7.82;2.85;;;26.90;65.30;;;;;;4990951;28;20500;-75
2022/07/16 03:26:49;;;;;;;2.85;2.55;;;26.90;65.90;;;;;;4990326;28;20105;-76
2022/07/16 03:29:14;;;;;;;3.33;2.25;;;26.80;65.90;;;;;;4984543;28;20122;-76
2022/07/16 03:31:40;;;;;;;5.00;2.53;;;26.80;65.80;;;;;;4975881;28;20036;-76
2022/07/16 03:34:06;;;;;;;2.90;2.55;;;26.80;66.10;;;;;;4985711;28;20065;-76
2022/07/16 03:36:31;;;;;;;5.53;2.47;;;26.80;66.00;;;;;;4982682;28;20023;-76
2022/07/16 03:38:58;;;;;;;2.83;2.08;;;26.80;65.90;;;;;;4977892;28;20082;-76
2022/07/16 03:41:23;;;;;;;2.60;2.22;;;26.80;65.90;;;;;;4989149;28;20018;-76
2022/07/16 03:43:49;;;;;;;2.35;1.98;;;26.70;66.10;;;;;;4977650;28;20039;-76
2022/07/16 03:46:16;;;;;;;10.10;1.98;;;26.70;66.10;;;;;;4961336;28;20022;-76
2022/07/16 03:48:42;;;;;;;3.78;2.15;;;26.80;66.10;;;;;;4975186;28;20034;-76
2022/07/16 03:51:08;;;;;;;4.32;2.80;;;26.80;66.00;;;;;;4979378;28;20098;-76
2022/07/16 03:53:34;;;;;;;4.82;2.35;;;26.50;66.50;;;;;;4981350;28;20399;-76
2022/07/16 03:56:00;;;;;;;2.90;2.60;;;26.50;66.50;;;;;;4975386;28;20424;-76
2022/07/16 03:58:26;;;;;;;4.28;2.55;;;26.40;66.60;;;;;;4977571;28;20117;-76
2022/07/16 04:00:52;;;;;;;10.88;2.55;;;26.40;66.60;;;;;;4979981;28;20094;-77
2022/07/16 04:03:37;;;;;;;4.22;2.30;;;26.30;66.80;;;;;;4983257;28;20062;-76
2022/07/16 04:06:04;;;;;;;4.63;2.47;;;26.40;66.80;;;;;;4980644;28;20026;-77
2022/07/16 04:08:30;;;;;;;4.35;2.22;;;26.40;66.50;;;;;;4974818;28;20031;-76
2022/07/16 04:10:56;;;;;;;5.07;2.83;;;26.50;66.30;;;;;;4977367;28;20041;-77
2022/07/16 04:13:22;;;;;;;4.68;2.00;;;26.50;66.20;;;;;;4976758;28;20712;-77
2022/07/16 04:15:48;;;;;;;2.28;1.92;;;26.50;65.90;;;;;;4983300;28;20106;-77
2022/07/16 04:18:13;;;;;;;2.42;1.70;;;26.50;65.80;;;;;;4983340;28;20088;-77
2022/07/16 04:20:39;;;;;;;3.65;2.00;;;26.50;66.00;;;;;;4983958;28;20087;-76
2022/07/16 04:23:05;;;;;;;2.40;1.80;;;26.50;65.90;;;;;;4966979;28;20042;-76
2022/07/16 04:25:32;;;;;;;4.82;2.05;;;26.50;65.80;;;;;;4989716;28;20356;-78
2022/07/16 04:27:59;;;;;;;2.22;1.63;;;26.40;65.90;;;;;;4986191;28;20046;-76
2022/07/16 04:30:24;;;;;;;3.22;1.80;;;26.40;65.90;;;;;;4983916;28;20034;-77
2022/07/16 04:32:50;;;;;;;2.97;1.60;;;26.40;65.80;;;;;;4983123;28;20038;-76
2022/07/16 04:35:17;;;;;;;2.03;1.77;;;26.30;65.90;;;;;;4984756;28;20487;-75
2022/07/16 04:37:43;;;;;;;4.18;2.05;;;26.40;65.50;;;;;;4982682;28;20348;-75
2022/07/16 04:40:11;;;;;;;3.10;1.88;;;26.40;65.30;;;;;;4986670;28;20394;-75
2022/07/16 04:42:37;;;;;;;7.53;2.38;;;26.50;65.10;;;;;;4985784;28;20053;-75
2022/07/16 04:45:03;;;;;;;3.30;2.05;;;26.40;64.80;;;;;;4992999;28;20378;-76
2022/07/16 04:47:29;;;;;;;8.13;2.13;;;26.50;64.80;;;;;;4984955;28;20035;-75
2022/07/16 04:49:55;;;;;;;2.75;1.88;;;26.40;64.70;;;;;;4989698;28;20034;-75
2022/07/16 04:52:21;;;;;;;2.38;1.73;;;26.40;64.70;;;;;;4992603;28;20038;-75
2022/07/16 04:54:46;;;;;;;4.53;1.80;;;26.30;64.70;;;;;;4980332;28;20034;-75
2022/07/16 04:57:12;;;;;;;2.95;1.60;;;26.40;64.70;;;;;;4989491;28;20037;-77
2022/07/16 04:59:38;;;;;;;6.78;2.30;;;26.30;64.40;;;;;;4992746;28;20057;-78
2022/07/16 05:04:48;;;;;;;4.88;1.90;;;26.30;64.60;;;;;;4974248;28;20081;-76
2022/07/16 05:07:14;;;;;;;1.90;1.50;;;26.30;64.60;;;;;;4986816;28;20038;-76
2022/07/16 05:09:39;;;;;;;2.83;2.10;;;26.40;64.60;;;;;;4993740;28;20026;-76
2022/07/16 05:12:05;;;;;;;6.05;1.85;;;26.40;64.40;;;;;;4988439;28;20037;-76
2022/07/16 05:14:31;;;;;;;4.88;2.08;;;26.40;64.20;;;;;;4993204;28;20102;-77
2022/07/16 05:16:57;;;;;;;2.88;2.35;;;26.50;64.30;;;;;;4984839;28;20432;-76
2022/07/16 05:19:23;;;;;;;2.75;1.98;;;26.50;64.20;;;;;;4978043;28;20019;-76
2022/07/16 05:21:49;;;;;;;3.63;2.28;;;26.50;64.50;;;;;;4982290;28;20052;-76
2022/07/16 05:24:15;;;;;;;2.45;1.60;;;26.50;63.60;;;;;;4986192;28;20113;-76
2022/07/16 05:26:40;;;;;;;3.58;1.80;;;26.60;63.70;;;;;;4996683;28;20042;-77
2022/07/16 05:29:06;;;;;;;4.18;1.88;;;26.50;63.50;;;;;;4996335;28;20027;-78
2022/07/16 05:31:32;;;;;;;3.40;1.80;;;26.60;63.30;;;;;;4977130;28;20034;-77
2022/07/16 05:34:07;;;;;;;2.92;1.95;;;26.60;63.30;;;;;;4977051;28;20030;-77
2022/07/16 05:36:33;;;;;;;3.95;2.25;;;26.70;63.30;;;;;;4989823;28;20035;-77
2022/07/16 05:38:59;;;;;;;3.10;2.10;;;26.70;63.10;;;;;;4984411;28;20374;-77
2022/07/16 05:41:24;;;;;;;5.72;2.50;;;26.70;63.00;;;;;;4994281;28;20056;-77
2022/07/16 05:43:50;;;;;;;4.75;1.95;;;26.70;62.60;;;;;;4995934;28;20074;-77
2022/07/16 05:46:15;;;;;;;6.50;2.03;;;26.80;62.50;;;;;;4977083;28;20038;-77
2022/07/16 05:48:41;;;;;;;2.17;1.80;;;26.70;62.00;;;;;;4986947;28;20037;-78
2022/07/16 05:51:07;;;;;;;1.70;1.60;;;26.70;61.90;;;;;;4995313;28;20294;-77
2022/07/16 05:53:32;;;;;;;3.90;1.88;;;26.70;61.90;;;;;;4974979;28;20384;-77
2022/07/16 05:55:58;;;;;;;3.60;1.50;;;26.70;61.70;;;;;;4976607;28;20035;-79
2022/07/16 05:58:24;;;;;;;3.13;1.48;;;26.80;61.90;;;;;;4976922;28;20034;-77
2022/07/16 06:00:49;;;;;;;3.35;1.70;;;26.80;62.20;;;;;;4991931;28;20027;-77
2022/07/16 06:03:15;;;;;;;2.85;1.83;;;26.80;61.80;;;;;;4999197;28;20133;-75
2022/07/16 06:05:41;;;;;;;2.33;1.38;;;26.80;61.30;;;;;;5010102;28;20037;-75
2022/07/16 06:08:06;;;;;;;2.83;1.60;;;26.90;61.40;;;;;;4991700;28;20027;-75
2022/07/16 06:10:32;;;;;;;6.57;2.00;;;26.90;61.30;;;;;;4993940;28;20062;-77
2022/07/16 06:12:58;;;;;;;4.97;2.38;;;26.90;61.30;;;;;;5005868;28;20037;-76
2022/07/16 06:15:23;;;;;;;4.82;1.90;;;26.90;61.00;;;;;;4992613;28;20026;-76
2022/07/16 06:17:49;;;;;;;2.20;1.60;;;27.00;61.00;;;;;;4997988;28;20069;-75
2022/07/16 06:20:15;;;;;;;2.58;1.70;;;27.00;60.90;;;;;;4978160;28;20058;-76
2022/07/16 06:22:41;;;;;;;3.03;1.90;;;27.00;60.40;;;;;;4980613;28;20045;-79
2022/07/16 06:25:07;;;;;;;4.18;1.90;;;27.00;59.90;;;;;;4977553;28;20399;-75
2022/07/16 06:27:32;;;;;;;2.38;1.55;;;27.10;59.90;;;;;;4995025;28;20025;-78
2022/07/16 06:30:03;;;;;;;4.65;1.58;;;27.20;59.90;;;;;;4987020;28;20034;-76
2022/07/16 06:32:29;;;;;;;3.17;1.60;;;27.20;59.90;;;;;;4985653;28;20463;-75
2022/07/16 06:34:55;;;;;;;4.47;1.95;;;27.20;59.70;;;;;;4987966;28;20045;-75
2022/07/16 06:37:21;;;;;;;2.85;1.83;;;27.20;59.70;;;;;;4995596;28;20101;-75
2022/07/16 06:39:46;;;;;;;2.60;1.80;;;27.30;59.60;;;;;;4978160;28;20027;-75
2022/07/16 06:42:12;;;;;;;3.22;1.77;;;27.30;59.50;;;;;;4976394;28;20023;-75
2022/07/16 06:44:39;;;;;;;2.70;1.55;;;27.30;59.60;;;;;;4958753;28;20108;-75
2022/07/16 06:47:05;;;;;;;2.13;1.85;;;27.40;59.60;;;;;;4987534;28;20058;-75
2022/07/16 06:49:30;;;;;;;3.20;1.70;;;27.40;59.00;;;;;;4980644;28;20062;-75
2022/07/16 06:51:56;;;;;;;2.47;1.38;;;27.40;58.70;;;;;;4992077;28;20045;-75
2022/07/16 06:54:22;;;;;;;2.80;1.70;;;27.40;58.90;;;;;;4978534;28;20475;-75
2022/07/16 06:56:48;;;;;;;1.67;1.48;;;27.40;59.00;;;;;;4965669;28;20491;-75
2022/07/16 06:59:13;;;;;;;4.75;1.65;;;27.50;59.00;;;;;;4963721;28;20038;-75
2022/07/16 07:01:39;;;;;;;7.30;1.80;;;27.50;58.80;;;;;;4975733;28;20106;-76
2022/07/16 07:04:05;;;;;;;1.63;1.33;;;27.60;58.80;;;;;;4978233;28;20042;-76
2022/07/16 07:06:31;;;;;;;4.13;1.60;;;27.60;58.50;;;;;;4965503;28;20472;-76
2022/07/16 07:08:57;;;;;;;2.75;1.67;;;27.60;58.30;;;;;;4980849;28;20041;-76
2022/07/16 07:11:23;;;;;;;2.97;1.58;;;27.70;57.90;;;;;;4970915;28;20157;-76
2022/07/16 07:13:48;;;;;;;2.05;1.02;;;27.70;57.70;;;;;;4973345;28;20050;-77
2022/07/16 07:16:15;;;;;;;4.40;1.70;;;27.70;57.80;;;;;;4985251;28;20042;-76
2022/07/16 07:18:41;;;;;;;2.47;1.63;;;27.80;57.70;;;;;;4986788;28;20030;-81
2022/07/16 07:21:06;;;;;;;4.20;1.40;;;27.80;57.40;;;;;;4983501;28;20132;-80
2022/07/16 07:23:32;;;;;;;3.20;1.35;;;27.80;57.40;;;;;;4980584;28;20037;-75
2022/07/16 07:25:58;;;;;;;2.08;1.55;;;27.90;57.20;;;;;;4986383;28;20479;-75
2022/07/16 07:28:24;;;;;;;2.08;1.65;;;27.90;56.40;;;;;;4969451;28;20049;-74
2022/07/16 07:30:49;;;;;;;1.33;1.20;;;27.90;56.20;;;;;;4986522;28;20030;-75
2022/07/16 07:33:15;;;;;;;2.65;1.98;;;27.90;56.60;;;;;;4987291;28;20146;-75
2022/07/16 07:35:41;;;;;;;2.38;1.40;;;28.00;56.80;;;;;;4983223;28;20030;-75
2022/07/16 07:38:07;;;;;;;164.75;141.52;;;28.00;56.50;;;;;;4981874;28;20038;-74
2022/07/16 07:40:33;;;;;;;37.25;33.28;;;28.10;56.40;;;;;;4981261;28;20026;-74
2022/07/16 07:43:04;;;;;;;8.13;7.07;;;28.20;55.40;;;;;;4990401;28;20573;-75
2022/07/16 07:45:30;;;;;;;5.70;2.85;;;28.20;55.80;;;;;;4987648;28;20054;-76
2022/07/16 07:47:56;;;;;;;3.22;2.10;;;28.30;55.60;;;;;;4984876;28;20121;-76
2022/07/16 07:50:23;;;;;;;3.35;1.85;;;28.30;55.60;;;;;;4981845;28;21661;-76
2022/07/16 07:52:49;;;;;;;2.53;1.70;;;28.40;55.60;;;;;;4981508;28;20031;-81
2022/07/16 07:55:14;;;;;;;1.98;1.42;;;28.40;55.20;;;;;;4982074;28;20459;-81
2022/07/16 07:57:40;;;;;;;4.78;1.75;;;28.50;55.20;;;;;;4982622;28;20014;-81
2022/07/16 08:00:09;;;;;;;3.83;1.50;;;28.60;55.40;;;;;;4982129;28;20053;-81
2022/07/16 08:02:34;;;;;;;1.50;1.40;;;28.60;55.10;;;;;;4983849;28;20072;-81
2022/07/16 08:05:01;;;;;;;4.53;1.58;;;28.70;55.10;;;;;;4980643;28;20494;-80
2022/07/16 08:07:27;;;;;;;3.33;1.30;;;28.70;55.80;;;;;;4963906;28;20022;-75
2022/07/16 08:09:52;;;;;;;1.80;1.40;;;28.80;55.20;;;;;;4964914;28;20474;-76
2022/07/16 08:12:18;;;;;;;1.73;1.50;;;28.90;55.00;;;;;;4983227;28;20093;-76
2022/07/16 08:14:44;;;;;;;2.20;1.20;;;28.90;54.70;;;;;;4983771;28;20050;-80
2022/07/16 08:17:12;;;;;;;2.30;1.33;;;29.00;54.50;;;;;;4982176;28;20476;-79
2022/07/16 08:19:38;;;;;;;3.67;1.50;;;29.10;54.30;;;;;;4982584;28;20035;-79
2022/07/16 08:22:04;;;;;;;3.38;1.70;;;29.00;53.70;;;;;;4983574;28;20026;-79
2022/07/16 08:27:14;;;;;;;3.92;1.73;;;29.10;53.80;;;;;;4981695;28;20044;-75
2022/07/16 08:29:40;;;;;;;3.08;1.63;;;29.20;54.10;;;;;;4979011;28;20507;-74
2022/07/16 08:32:06;;;;;;;1.55;1.23;;;29.20;53.80;;;;;;4981261;28;20069;-76
2022/07/16 08:34:32;;;;;;;2.95;1.45;;;29.30;53.60;;;;;;4962480;28;20034;-75
2022/07/16 08:36:58;;;;;;;3.17;1.60;;;29.30;53.30;;;;;;4963108;28;20027;-75
2022/07/16 08:39:23;;;;;;;2.00;1.70;;;29.30;52.80;;;;;;4978131;28;20030;-75
2022/07/16 08:41:51;;;;;;;2.28;1.15;;;29.40;53.10;;;;;;4976996;28;20031;-75
2022/07/16 08:44:17;;;;;;;2.88;1.58;;;29.40;53.40;;;;;;4961812;28;20050;-75
2022/07/16 08:46:43;;;;;;;1.98;1.40;;;29.50;53.90;;;;;;4979430;28;20471;-75
2022/07/16 08:49:09;;;;;;;3.72;1.35;;;29.60;54.30;;;;;;4978502;28;20034;-76
2022/07/16 08:51:36;;;;;;;4.32;1.75;;;29.70;54.20;;;;;;4984156;28;20033;-74
2022/07/16 08:54:15;;;;;;;2.03;1.48;;;29.80;53.70;;;;;;4987282;28;20035;-75
2022/07/16 08:56:43;;;;;;;3.15;1.52;;;29.90;53.40;;;;;;4986944;28;20102;-74
2022/07/16 08:59:12;;;;;;;3.13;1.48;;;29.90;53.20;;;;;;4985357;28;20065;-74
2022/07/16 09:01:38;;;;;;;3.25;1.73;;;30.00;53.30;;;;;;4987854;28;20499;-74
2022/07/16 09:04:04;;;;;;;2.22;1.65;;;30.10;52.20;;;;;;4993078;28;20089;-74
2022/07/16 09:06:31;;;;;;;1.80;1.40;;;30.10;52.30;;;;;;4978320;28;20062;-74
2022/07/16 09:08:57;;;;;;;5.70;1.30;;;30.20;52.70;;;;;;4996829;28;20037;-74
2022/07/16 09:11:29;;;;;;;1.92;1.33;;;30.30;53.00;;;;;;4997056;28;20030;-74
2022/07/16 09:14:11;;;;;;;1.25;1.15;;;30.30;52.90;;;;;;4996348;28;20041;-74
2022/07/16 09:16:40;;;;;;;1.90;1.42;;;30.40;52.70;;;;;;4995708;28;20068;-74
2022/07/16 09:19:20;;;;;;;2.33;1.67;;;30.50;52.70;;;;;;4996968;28;20037;-74
2022/07/16 09:22:01;;;;;;;;;;;30.60;52.30;;;;;;4997241;28;20293;-74
2022/07/16 09:24:46;;;;;;;2.22;1.40;;;30.70;52.00;;;;;;4997261;28;19944;-74
2022/07/16 09:27:12;;;;;;;1.50;1.40;;;30.80;51.90;;;;;;4996254;28;20453;-74
2022/07/16 09:29:52;;;;;;;3.33;1.58;;;30.80;52.10;;;;;;4979355;28;20557;-74
2022/07/16 09:32:34;;;;;;;3.15;1.58;;;30.90;52.10;;;;;;4996932;28;20028;-73
2022/07/16 09:35:14;;;;;;;3.70;1.70;;;31.00;51.60;;;;;;4996888;28;20030;-80
2022/07/16 09:37:55;;;;;;;3.72;1.83;;;31.10;51.40;;;;;;4985119;28;20041;-81
2022/07/16 09:40:37;;;;;;;2.47;1.60;;;31.10;50.50;;;;;;4985060;28;20055;-81
2022/07/16 09:43:17;;;;;;;2.67;1.73;;;31.20;51.50;;;;;;4998278;28;20057;-81
2022/07/16 09:45:48;;;;;;;2.90;1.80;;;31.30;50.50;;;;;;4994316;28;20083;-81
2022/07/16 09:48:26;;;;;;;2.22;1.40;;;31.30;50.50;;;;;;4980507;28;20169;-80
2022/07/16 09:50:54;;;;;;;3.70;1.85;;;31.40;50.30;;;;;;4967899;28;20034;-73
2022/07/16 09:53:23;;;;;;;3.33;1.80;;;31.50;50.30;;;;;;4978953;28;20073;-73
2022/07/16 09:56:06;;;;;;;5.97;2.10;;;31.50;50.10;;;;;;4986641;28;20033;-73
2022/07/16 09:58:33;;;;;;;2.70;1.70;;;31.70;50.20;;;;;;4983208;28;20018;-73
2022/07/16 10:01:00;;;;;;;3.63;1.48;;;31.80;50.20;;;;;;4995215;28;20611;-73
2022/07/16 10:03:27;;;;;;;8.93;1.98;;;31.80;50.00;;;;;;4986106;28;20034;-72
2022/07/16 10:05:53;;;;;;;2.85;1.80;;;32.00;49.90;;;;;;4976460;28;20026;-75
2022/07/16 10:08:20;;;;;;;2.80;1.70;;;32.10;50.00;;;;;;4987935;28;20045;-74
2022/07/16 10:10:46;;;;;;;1.67;1.58;;;32.10;49.80;;;;;;4988726;28;20088;-74
2022/07/16 10:13:14;;;;;;;4.53;1.70;;;32.20;49.70;;;;;;4991903;28;20037;-74
2022/07/16 10:15:41;;;;;;;1.90;1.65;;;32.30;49.70;;;;;;4973607;28;20031;-74
2022/07/16 10:18:45;;;;;;;1.65;1.40;;;32.30;49.90;;;;;;4982115;28;20027;-74
2022/07/16 10:21:18;;;;;;;2.38;1.60;;;32.50;48.40;;;;;;4984394;28;20053;-74
2022/07/16 10:23:49;;;;;;;4.88;1.50;;;32.60;48.50;;;;;;4984527;28;20030;-74
2022/07/16 10:26:21;;;;;;;1.95;1.50;;;32.60;48.50;;;;;;4985691;28;20046;-74
2022/07/16 10:28:56;;;;;;;1.73;1.55;;;32.80;48.60;;;;;;4986907;28;20113;-73
2022/07/16 10:34:35;;;;;;;2.65;1.60;;;33.00;48.00;;;;;;4983064;28;20085;-74
2022/07/16 10:37:02;;;;;;;5.72;1.77;;;33.10;48.50;;;;;;4993274;28;20134;-74
2022/07/16 10:39:28;;;;;;;4.18;1.70;;;33.30;48.50;;;;;;4992481;28;20027;-75
2022/07/16 10:41:58;;;;;;;4.22;1.83;;;33.40;48.60;;;;;;4994381;28;20467;-75
2022/07/16 10:44:26;;;;;;;7.93;1.83;;;33.50;48.70;;;;;;4989726;28;20044;-74
2022/07/16 10:47:03;;;;;;;3.30;1.55;;;33.60;48.60;;;;;;4981429;28;20051;-74
2022/07/16 10:49:30;;;;;;;2.45;1.80;;;33.80;48.30;;;;;;4975492;28;20591;-74
2022/07/16 10:52:03;;;;;;;3.00;1.65;;;33.70;47.20;;;;;;4988865;28;20046;-74
2022/07/16 10:54:49;;;;;;;1.83;1.38;;;33.70;47.80;;;;;;4995029;28;20475;-74
2022/07/16 10:57:17;;;;;;;4.15;1.40;;;33.80;48.00;;;;;;4984292;28;20387;-74
2022/07/16 10:59:46;;;;;;;3.25;1.30;;;33.90;47.50;;;;;;4983611;28;20423;-74
2022/07/16 11:02:14;;;;;;;1.47;1.30;;;34.00;47.80;;;;;;4984992;28;20038;-74
2022/07/16 11:04:45;;;;;;;2.95;1.80;;;34.30;48.10;;;;;;4991496;28;20140;-74
2022/07/16 11:07:11;;;;;;;4.30;2.20;;;34.40;48.20;;;;;;4990781;28;20085;-74
2022/07/16 11:09:40;;;;;;;5.50;1.50;;;34.60;48.10;;;;;;4987717;28;20647;-74
2022/07/16 11:12:09;;;;;;;2.88;1.75;;;34.70;46.80;;;;;;4982869;28;20089;-74
2022/07/16 11:14:35;;;;;;;3.90;1.40;;;34.80;47.10;;;;;;4991647;28;20022;-74
2022/07/16 11:17:02;;;;;;;1.52;1.30;;;34.90;47.00;;;;;;4986549;28;20030;-75
2022/07/16 11:19:28;;;;;;;2.97;2.45;;;35.10;46.80;;;;;;4990564;28;20053;-75
2022/07/16 11:21:55;;;;;;;2.72;1.70;;;35.30;46.50;;;;;;4998076;28;20450;-75
2022/07/16 11:24:22;;;;;;;2.15;1.13;;;35.50;46.40;;;;;;5001669;28;20018;-75
2022/07/16 11:26:48;;;;;;;1.75;1.40;;;35.60;46.20;;;;;;4992328;28;20035;-75
2022/07/16 11:29:14;;;;;;;3.17;1.75;;;35.70;45.90;;;;;;4979728;28;20110;-75
2022/07/16 11:31:41;;;;;;;2.80;1.75;;;35.80;45.60;;;;;;4994001;28;20030;-74
2022/07/16 11:34:09;;;;;;;3.58;1.45;;;36.00;45.50;;;;;;4983471;28;20023;-74
2022/07/16 11:36:44;;;;;;;2.03;1.40;;;36.30;45.00;;;;;;4988656;28;20487;-74
2022/07/16 11:39:12;;;;;;;2.45;1.63;;;36.50;45.00;;;;;;4983885;28;20039;-74
2022/07/16 11:41:49;;;;;;;3.22;1.73;;;36.90;44.10;;;;;;4994084;28;20034;-74
2022/07/16 11:44:25;;;;;;;3.58;1.42;;;37.30;43.50;;;;;;4993866;28;20050;-74
2022/07/16 11:46:54;;;;;;;1.63;1.40;;;37.60;43.50;;;;;;4993823;28;20030;-75
2022/07/16 11:49:25;;;;;;;5.07;1.77;;;38.10;42.90;;;;;;4991835;28;20027;-74
2022/07/16 11:51:53;;;;;;;3.83;1.60;;;38.40;42.10;;;;;;4995830;28;21273;-75
2022/07/16 11:54:19;;;;;;;5.97;2.05;;;38.70;41.90;;;;;;4986606;28;20022;-74
2022/07/16 11:56:45;;;;;;;2.10;1.60;;;38.90;41.60;;;;;;4982658;28;20398;-80
2022/07/16 11:59:41;;;;;;;4.00;1.45;;;39.20;41.30;;;;;;4983151;28;20027;-79
2022/07/16 12:02:14;;;;;;;4.53;1.60;;;39.30;40.60;;;;;;4983499;28;20042;-74
2022/07/16 12:04:50;;;;;;;3.10;1.95;;;39.40;40.50;;;;;;4982470;28;20431;-74
2022/07/16 12:07:28;;;;;;;4.43;2.22;;;39.50;39.40;;;;;;4964975;28;20110;-74
2022/07/16 12:10:02;;;;;;;2.60;1.40;;;39.50;40.10;;;;;;4964859;28;20037;-74
2022/07/16 12:12:31;;;;;;;3.17;1.50;;;39.50;39.80;;;;;;4980955;28;20273;-74
2022/07/16 12:15:01;;;;;;;3.93;1.50;;;39.60;39.50;;;;;;4978260;28;20042;-73
2022/07/16 12:17:33;;;;;;;2.00;1.67;;;39.60;39.60;;;;;;4980617;28;20026;-74
2022/07/16 12:20:25;;;;;;;3.60;1.90;;;39.60;40.30;;;;;;4987444;28;20466;-74
2022/07/16 12:22:54;;;;;;;10.32;1.92;;;39.70;39.80;;;;;;4978748;28;20030;-78
2022/07/16 12:25:26;;;;;;;5.85;1.50;;;39.90;39.90;;;;;;4981759;28;20113;-80
2022/07/16 12:28:09;;;;;;;3.30;1.33;;;40.00;39.60;;;;;;4982809;28;20023;-81
2022/07/16 12:31:00;;;;;;;2.50;1.63;;;40.00;38.80;;;;;;4980428;28;20030;-80
2022/07/16 12:33:28;;;;;;;1.95;1.70;;;40.10;37.80;;;;;;4962019;28;20508;-79
2022/07/16 12:36:07;;;;;;;1.60;1.48;;;40.10;38.40;;;;;;4981604;28;20054;-79
2022/07/16 12:38:45;;;;;;;3.22;1.50;;;40.20;36.80;;;;;;4983063;28;20043;-78
2022/07/16 12:41:26;;;;;;;2.40;1.75;;;40.20;38.20;;;;;;4982746;28;20023;-78
2022/07/16 12:44:25;;;;;;;2.17;1.50;;;40.30;38.50;;;;;;4980821;28;20049;-79
2022/07/16 12:46:52;;;;;;;3.70;1.63;;;40.50;37.60;;;;;;4948193;28;20039;-79
2022/07/16 12:49:29;;;;;;;4.32;1.75;;;40.60;36.60;;;;;;4983464;28;20046;-79
2022/07/16 12:52:01;;;;;;;3.53;1.30;;;40.60;37.30;;;;;;4980306;28;20497;-78
2022/07/16 12:58:47;;;;;;;1.63;1.52;;;40.60;37.10;;;;;;4978422;28;20027;-77
2022/07/16 12:59:58;;;;;;;2.97;1.70;;;40.50;36.80;;;;;;4983524;28;20041;-78
2022/07/16 13:02:23;;;;;;;5.60;1.85;;;40.50;36.40;;;;;;4981533;28;20053;-77
2022/07/16 13:04:49;;;;;;;2.53;1.52;;;40.60;36.40;;;;;;4981075;28;20483;-76
2022/07/16 13:07:15;;;;;;;3.20;2.00;;;40.50;36.30;;;;;;4965815;28;20034;-79